Roelyn, Iowa
Current Conditions -  °F | °C
As of 11:35 AM on Friday 24 Oct 2014 (Local Time) from KFOD Reporting Station
Overcast Overcast  
Wind Chill: 63°   Ceiling: 1200
Heat Index: 63°   Visibility: 5mi
Dew Point: 57°   Wind: 13mph
Humidity: 82%   Direction: 230°SW
Pressure: 29.93"   Gusts: NA
Location:  42.4284°N, 94.3389°W
Report Text: KFOD 241635Z AUTO 23011KT 5SM BKN012 OVC017 17/14 A2993 RMK AO1
Loading
Personal Weather Stations






























Interactive Weather Map
Tropical Storm Tracking
New forecast layout! Learn more

10-Day Weather Forecast

Advertisements
Track Severe Weather on mobile